Time;durP1;ratioP1;P1;durP2;ratioP2;P2;SDS_P1;SDS_P2;PMS_P1;PMS_P2;Temp;Humidity;BMP_temperature;BMP_pressure;BME280_temperature;BME280_humidity;BME280_pressure;Samples;Min_cycle;Max_cycle;Signal;HPM_P1;HPM_P2
2021/05/02 00:00:28;;;;;;;23.57;12.50;;;;;;;;;;5052730;28;20040;-79
2021/05/02 00:02:54;;;;;;;27.47;14.00;;;;;;;;;;5055104;28;20023;-79
2021/05/02 00:05:20;;;;;;;23.23;12.33;;;;;;;;;;5056620;28;20005;-79
2021/05/02 00:07:46;;;;;;;24.50;12.53;;;;;;;;;;5055230;28;20482;-79
2021/05/02 00:10:12;;;;;;;21.27;11.47;;;;;;;;;;5056457;28;20396;-79
2021/05/02 00:12:38;;;;;;;23.57;11.70;;;;;;;;;;5054983;28;20029;-79
2021/05/02 00:15:05;;;;;;;24.80;12.40;;;;;;;;;;5056454;28;20016;-79
2021/05/02 00:17:33;;;;;;;27.40;12.40;;;;;;;;;;5055062;28;20017;-79
2021/05/02 00:19:58;;;;;;;20.70;11.60;;;;;;;;;;5056182;28;20019;-79
2021/05/02 00:22:23;;;;;;;22.07;12.30;;;;;;;;;;5055001;28;20100;-79
2021/05/02 00:24:49;;;;;;;22.70;11.47;;;;;;;;;;5054838;28;20017;-79
2021/05/02 00:27:14;;;;;;;19.50;11.67;;;;;;;;;;5056064;28;20029;-79
2021/05/02 00:29:41;;;;;;;19.60;12.10;;;;;;;;;;5056262;28;20064;-79
2021/05/02 00:32:07;;;;;;;21.90;11.47;;;;;;;;;;5054723;28;20024;-79
2021/05/02 00:34:34;;;;;;;20.23;12.53;;;;;;;;;;5054797;28;20021;-79
2021/05/02 00:37:00;;;;;;;24.77;12.53;;;;;;;;;;5054676;28;20435;-79
2021/05/02 00:39:25;;;;;;;22.60;12.37;;;;;;;;;;5056311;28;20021;-79
2021/05/02 00:41:53;;;;;;;22.37;11.70;;;;;;;;;;5055928;28;20380;-79
2021/05/02 00:44:25;;;;;;;19.60;12.27;;;;;;;;;;5054515;28;20025;-79
2021/05/02 00:46:57;;;;;;;21.43;12.10;;;;;;;;;;5047987;28;20376;-79
2021/05/02 00:49:35;;;;;;;22.65;12.85;;;;;;;;;;5055752;28;20032;-79
2021/05/02 00:52:08;;;;;;;28.87;13.07;;;;;;;;;;5055554;28;20070;-79
2021/05/02 00:54:38;;;;;;;23.17;13.30;;;;;;;;;;5055832;28;20469;-79
2021/05/02 00:57:06;;;;;;;21.03;13.37;;;;;;;;;;5055820;28;20059;-79
2021/05/02 00:59:41;;;;;;;23.00;13.13;;;;;;;;;;5055435;28;20013;-79
2021/05/02 01:02:07;;;;;;;23.97;13.90;;;;;;;;;;5054323;28;20017;-79
2021/05/02 01:04:33;;;;;;;25.43;14.13;;;;;;;;;;5053913;28;20017;-79
2021/05/02 01:07:03;;;;;;;25.20;13.93;;;;;;;;;;5055881;28;20035;-79
2021/05/02 01:09:29;;;;;;;21.50;12.90;;;;;;;;;;5055290;28;20028;-79
2021/05/02 01:11:56;;;;;;;23.37;13.70;;;;;;;;;;5053886;28;20067;-79
2021/05/02 01:14:22;;;;;;;29.87;15.57;;;;;;;;;;5053688;28;20029;-79
2021/05/02 01:16:49;;;;;;;22.97;13.90;;;;;;;;;;5053931;28;20021;-79
2021/05/02 01:19:14;;;;;;;28.97;14.73;;;;;;;;;;5053940;28;20039;-79
2021/05/02 01:21:41;;;;;;;24.63;14.77;;;;;;;;;;5053630;28;20035;-79
2021/05/02 01:24:10;;;;;;;31.30;16.10;;;;;;;;;;5053882;28;20492;-79
2021/05/02 01:26:39;;;;;;;29.77;15.57;;;;;;;;;;5053557;28;20075;-79
2021/05/02 01:29:04;;;;;;;28.30;16.23;;;;;;;;;;5054341;28;20465;-79
2021/05/02 01:31:29;;;;;;;30.67;16.47;;;;;;;;;;5053461;28;20057;-79
2021/05/02 01:33:54;;;;;;;28.37;16.17;;;;;;;;;;5053734;28;20070;-79
2021/05/02 01:36:20;;;;;;;30.67;17.93;;;;;;;;;;5054881;28;20423;-79
2021/05/02 01:38:47;;;;;;;33.47;17.27;;;;;;;;;;5054670;28;20021;-79
2021/05/02 01:41:12;;;;;;;28.07;15.53;;;;;;;;;;5054908;28;20377;-79
2021/05/02 01:43:37;;;;;;;31.20;16.67;;;;;;;;;;5053200;28;20017;-79
2021/05/02 01:46:04;;;;;;;27.97;16.50;;;;;;;;;;5053452;28;20111;-79
2021/05/02 01:48:30;;;;;;;29.23;16.53;;;;;;;;;;5053227;28;20025;-79
2021/05/02 01:50:57;;;;;;;30.40;16.37;;;;;;;;;;5053310;28;20036;-79
2021/05/02 01:53:23;;;;;;;28.80;16.40;;;;;;;;;;5053775;28;20412;-79
2021/05/02 01:55:51;;;;;;;30.30;17.40;;;;;;;;;;5052902;28;20023;-79
2021/05/02 01:58:16;;;;;;;36.17;17.40;;;;;;;;;;5053222;28;20404;-79
2021/05/02 02:00:50;;;;;;;32.53;17.13;;;;;;;;;;5053039;28;20074;-79
2021/05/02 02:03:15;;;;;;;34.10;17.87;;;;;;;;;;5053175;28;20021;-79
2021/05/02 02:05:40;;;;;;;29.70;16.80;;;;;;;;;;5052900;28;20070;-79
2021/05/02 02:08:06;;;;;;;29.73;16.77;;;;;;;;;;5053091;28;20021;-79
2021/05/02 02:10:32;;;;;;;29.93;17.37;;;;;;;;;;5054365;28;20017;-79
2021/05/02 02:12:58;;;;;;;34.10;18.37;;;;;;;;;;5052601;28;20032;-79
2021/05/02 02:15:25;;;;;;;33.47;19.30;;;;;;;;;;5054168;28;20368;-79
2021/05/02 02:17:50;;;;;;;35.93;18.97;;;;;;;;;;5053971;28;20021;-79
2021/05/02 02:20:16;;;;;;;32.40;18.83;;;;;;;;;;5054113;28;20025;-79
2021/05/02 02:22:42;;;;;;;35.87;18.20;;;;;;;;;;5052632;28;20472;-78
2021/05/02 02:25:08;;;;;;;32.63;18.80;;;;;;;;;;5053405;28;20059;-79
2021/05/02 02:27:34;;;;;;;31.57;17.57;;;;;;;;;;5054330;28;20033;-79
2021/05/02 02:30:00;;;;;;;33.40;19.37;;;;;;;;;;5052393;28;20047;-79
2021/05/02 02:32:27;;;;;;;32.30;17.77;;;;;;;;;;5053937;28;20020;-79
2021/05/02 02:34:54;;;;;;;35.40;19.47;;;;;;;;;;5052366;28;20112;-79
2021/05/02 02:37:21;;;;;;;35.93;19.90;;;;;;;;;;5053756;28;20100;-79
2021/05/02 02:39:47;;;;;;;33.17;19.13;;;;;;;;;;5052283;28;20051;-79
2021/05/02 02:42:13;;;;;;;37.37;18.57;;;;;;;;;;5053664;28;20017;-79
2021/05/02 02:44:43;;;;;;;37.67;19.53;;;;;;;;;;5052214;28;20104;-79
2021/05/02 02:47:10;;;;;;;37.20;19.27;;;;;;;;;;5053665;28;20344;-79
2021/05/02 02:49:39;;;;;;;34.77;18.37;;;;;;;;;;5052208;28;20384;-79
2021/05/02 02:52:05;;;;;;;30.80;17.97;;;;;;;;;;5052069;28;20020;-79
2021/05/02 02:54:31;;;;;;;33.40;19.67;;;;;;;;;;5053817;28;20102;-79
2021/05/02 02:57:00;;;;;;;34.60;17.93;;;;;;;;;;5052033;28;20079;-79
2021/05/02 02:59:25;;;;;;;31.67;18.27;;;;;;;;;;5051937;28;20457;-79
2021/05/02 03:01:54;;;;;;;35.43;18.63;;;;;;;;;;5051968;28;20028;-79
2021/05/02 03:04:22;;;;;;;34.43;19.07;;;;;;;;;;5051799;28;20024;-79
2021/05/02 03:06:48;;;;;;;35.53;19.40;;;;;;;;;;5053265;28;20453;-79
2021/05/02 03:09:15;;;;;;;34.50;19.87;;;;;;;;;;5051712;28;20024;-79
2021/05/02 03:11:40;;;;;;;38.07;19.53;;;;;;;;;;5053179;28;20021;-79
2021/05/02 03:14:06;;;;;;;37.97;19.10;;;;;;;;;;5052999;28;20031;-79
2021/05/02 03:16:32;;;;;;;42.87;20.97;;;;;;;;;;5053398;28;20086;-79
2021/05/02 03:19:16;;;;;;;39.73;19.70;;;;;;;;;;5053144;28;20074;-79
2021/05/02 03:21:46;;;;;;;35.10;19.30;;;;;;;;;;5040377;28;20025;-79
2021/05/02 03:24:13;;;;;;;35.23;20.07;;;;;;;;;;5053116;28;20097;-79
2021/05/02 03:26:38;;;;;;;36.23;19.80;;;;;;;;;;5051612;28;20536;-79
2021/05/02 03:29:04;;;;;;;36.40;20.37;;;;;;;;;;5051617;28;20055;-79
2021/05/02 03:31:30;;;;;;;38.93;20.47;;;;;;;;;;5052783;28;20013;-79
2021/05/02 03:34:03;;;;;;;35.10;19.27;;;;;;;;;;5051547;28;20021;-79
2021/05/02 03:36:49;;;;;;;36.07;18.90;;;;;;;;;;5050338;28;20110;-79
2021/05/02 03:39:14;;;;;;;35.37;18.90;;;;;;;;;;5052582;28;20021;-79
2021/05/02 03:41:39;;;;;;;34.43;18.37;;;;;;;;;;5051523;28;20028;-79
2021/05/02 03:44:05;;;;;;;38.70;19.83;;;;;;;;;;5051508;28;20027;-79
2021/05/02 03:46:30;;;;;;;38.10;20.67;;;;;;;;;;5052726;28;20059;-79
2021/05/02 03:48:57;;;;;;;39.27;20.80;;;;;;;;;;5051455;28;20333;-79
2021/05/02 03:51:23;;;;;;;38.67;21.07;;;;;;;;;;5051323;28;20131;-79
2021/05/02 03:53:48;;;;;;;36.67;19.77;;;;;;;;;;5052361;28;20051;-79
2021/05/02 03:56:33;;;;;;;38.07;19.13;;;;;;;;;;5051696;28;20020;-80
2021/05/02 03:59:04;;;;;;;33.53;18.37;;;;;;;;;;5051136;28;20013;-79
2021/05/02 04:01:29;;;;;;;31.30;17.73;;;;;;;;;;5052650;28;20092;-79
2021/05/02 04:03:55;;;;;;;45.53;20.70;;;;;;;;;;5052398;28;20044;-79
2021/05/02 04:06:20;;;;;;;34.70;20.33;;;;;;;;;;5052858;28;20013;-79
2021/05/02 04:08:45;;;;;;;36.17;19.90;;;;;;;;;;5051252;28;20022;-79
2021/05/02 04:11:10;;;;;;;36.07;19.23;;;;;;;;;;5052232;28;20364;-79
2021/05/02 04:13:36;;;;;;;37.00;20.33;;;;;;;;;;5051154;28;20036;-79
2021/05/02 04:16:01;;;;;;;39.70;21.73;;;;;;;;;;5052368;28;20044;-79
2021/05/02 04:18:30;;;;;;;44.13;21.10;;;;;;;;;;5052362;28;20529;-79
2021/05/02 04:20:55;;;;;;;36.77;20.47;;;;;;;;;;5051027;28;20378;-78
2021/05/02 04:23:20;;;;;;;35.77;19.43;;;;;;;;;;5051362;28;20013;-79
2021/05/02 04:25:45;;;;;;;39.40;19.73;;;;;;;;;;5052440;28;20021;-79
2021/05/02 04:28:10;;;;;;;38.23;20.30;;;;;;;;;;5052154;28;20025;-79
2021/05/02 04:30:36;;;;;;;38.43;19.90;;;;;;;;;;5052401;28;20102;-79
2021/05/02 04:33:01;;;;;;;39.00;19.40;;;;;;;;;;5050839;28;20024;-79
2021/05/02 04:35:26;;;;;;;39.33;19.93;;;;;;;;;;5050815;28;20063;-79
2021/05/02 04:37:51;;;;;;;39.83;20.63;;;;;;;;;;5052188;28;20468;-79
2021/05/02 04:40:16;;;;;;;39.47;20.17;;;;;;;;;;5050787;28;20013;-79
2021/05/02 04:42:41;;;;;;;35.70;19.77;;;;;;;;;;5052162;28;20350;-79
2021/05/02 04:45:07;;;;;;;38.13;20.87;;;;;;;;;;5052019;28;20472;-79
2021/05/02 04:47:32;;;;;;;37.13;19.20;;;;;;;;;;5052859;28;20036;-79
2021/05/02 04:49:57;;;;;;;40.40;19.53;;;;;;;;;;5055712;28;20028;-79
2021/05/02 04:52:22;;;;;;;39.00;19.63;;;;;;;;;;5055779;28;20102;-79
2021/05/02 04:54:48;;;;;;;38.27;19.83;;;;;;;;;;5054335;28;20031;-79
2021/05/02 04:57:13;;;;;;;37.93;19.47;;;;;;;;;;5055483;28;20369;-79
2021/05/02 04:59:38;;;;;;;38.77;19.53;;;;;;;;;;5055686;28;20032;-79
2021/05/02 05:02:04;;;;;;;37.67;20.20;;;;;;;;;;5055549;28;20017;-79
2021/05/02 05:04:29;;;;;;;39.37;20.60;;;;;;;;;;5054393;28;20036;-79
2021/05/02 05:06:54;;;;;;;36.20;20.30;;;;;;;;;;5055559;28;20058;-79
2021/05/02 05:09:19;;;;;;;37.17;19.87;;;;;;;;;;5055834;28;20021;-79
2021/05/02 05:11:45;;;;;;;43.80;20.77;;;;;;;;;;5055489;28;20396;-79
2021/05/02 05:14:10;;;;;;;43.67;20.43;;;;;;;;;;5053804;28;20029;-79
2021/05/02 05:16:35;;;;;;;36.77;20.87;;;;;;;;;;5055257;28;20021;-79
2021/05/02 05:19:00;;;;;;;40.93;20.57;;;;;;;;;;5055329;28;20064;-79
2021/05/02 05:21:25;;;;;;;38.17;21.00;;;;;;;;;;5055141;28;20013;-79
2021/05/02 05:23:50;;;;;;;41.50;21.83;;;;;;;;;;5055198;28;20013;-79
2021/05/02 05:26:16;;;;;;;40.27;20.83;;;;;;;;;;5055016;28;20017;-79
2021/05/02 05:28:41;;;;;;;37.97;20.83;;;;;;;;;;5055237;28;20021;-79
2021/05/02 05:31:06;;;;;;;38.67;21.67;;;;;;;;;;5053678;28;20017;-79
2021/05/02 05:33:31;;;;;;;39.67;21.37;;;;;;;;;;5054999;28;20028;-79
2021/05/02 05:35:57;;;;;;;41.97;22.47;;;;;;;;;;5055265;28;20029;-79
2021/05/02 05:38:22;;;;;;;35.57;20.70;;;;;;;;;;5054823;28;20078;-79
2021/05/02 05:40:47;;;;;;;39.40;21.97;;;;;;;;;;5054885;28;20512;-79
2021/05/02 05:43:12;;;;;;;44.90;22.93;;;;;;;;;;5053386;28;20029;-79
2021/05/02 05:45:38;;;;;;;45.60;22.07;;;;;;;;;;5053520;28;20013;-79
2021/05/02 05:48:03;;;;;;;47.53;23.50;;;;;;;;;;5054651;28;20449;-79
2021/05/02 05:50:29;;;;;;;44.67;24.50;;;;;;;;;;5053255;28;20009;-79
2021/05/02 05:52:54;;;;;;;46.30;23.10;;;;;;;;;;5053314;28;20025;-79
2021/05/02 05:55:20;;;;;;;47.57;25.50;;;;;;;;;;5053112;28;20043;-79
2021/05/02 05:57:46;;;;;;;40.47;22.67;;;;;;;;;;5052796;28;20021;-79
2021/05/02 06:00:12;;;;;;;47.17;23.70;;;;;;;;;;5052706;28;20050;-79
2021/05/02 06:02:37;;;;;;;42.40;22.83;;;;;;;;;;5054212;28;20091;-79
2021/05/02 06:05:03;;;;;;;47.23;21.53;;;;;;;;;;5053096;28;20032;-79
2021/05/02 06:07:28;;;;;;;41.93;21.97;;;;;;;;;;5052909;28;20036;-79
2021/05/02 06:09:54;;;;;;;42.33;20.27;;;;;;;;;;5053013;28;20021;-79
2021/05/02 06:12:20;;;;;;;36.03;20.33;;;;;;;;;;5054007;28;20028;-79
2021/05/02 06:14:45;;;;;;;38.50;20.03;;;;;;;;;;5052784;28;20040;-79
2021/05/02 06:17:10;;;;;;;40.70;20.23;;;;;;;;;;5052805;28;20021;-79
2021/05/02 06:19:35;;;;;;;39.90;20.47;;;;;;;;;;5053972;28;20127;-79
2021/05/02 06:22:00;;;;;;;37.40;18.67;;;;;;;;;;5054021;28;20435;-79
2021/05/02 06:24:25;;;;;;;34.77;17.90;;;;;;;;;;5053787;28;20024;-79
2021/05/02 06:26:51;;;;;;;33.07;17.10;;;;;;;;;;5053891;28;20468;-79
2021/05/02 06:29:16;;;;;;;34.23;17.80;;;;;;;;;;5052545;28;20029;-79
2021/05/02 06:31:42;;;;;;;37.73;17.47;;;;;;;;;;5052424;28;20087;-79
2021/05/02 06:34:07;;;;;;;33.23;17.90;;;;;;;;;;5053809;28;20032;-79
2021/05/02 06:36:32;;;;;;;32.53;17.23;;;;;;;;;;5053534;28;20107;-79
2021/05/02 06:38:57;;;;;;;34.20;17.00;;;;;;;;;;5052379;28;20014;-79
2021/05/02 06:41:22;;;;;;;29.13;16.13;;;;;;;;;;5053327;28;20020;-79
2021/05/02 06:43:48;;;;;;;29.13;13.77;;;;;;;;;;5053572;28;20017;-79
2021/05/02 06:46:27;;;;;;;26.07;14.63;;;;;;;;;;5052269;28;20074;-79
2021/05/02 06:48:53;;;;;;;24.33;12.43;;;;;;;;;;5052238;28;20056;-79
2021/05/02 06:51:18;;;;;;;27.23;13.30;;;;;;;;;;5052116;28;20028;-79
2021/05/02 06:53:43;;;;;;;25.33;13.60;;;;;;;;;;5051795;28;20021;-79
2021/05/02 06:56:09;;;;;;;26.77;13.13;;;;;;;;;;5052024;28;20480;-79
2021/05/02 06:58:34;;;;;;;23.77;12.10;;;;;;;;;;5053553;28;20025;-79
2021/05/02 07:00:59;;;;;;;22.03;10.73;;;;;;;;;;5051828;28;20013;-79
2021/05/02 07:03:24;;;;;;;21.37;10.63;;;;;;;;;;5052089;28;20028;-79
2021/05/02 07:05:49;;;;;;;24.10;10.83;;;;;;;;;;5051696;28;20048;-79
2021/05/02 07:08:15;;;;;;;21.90;11.37;;;;;;;;;;5051824;28;20032;-79
2021/05/02 07:10:40;;;;;;;22.37;10.70;;;;;;;;;;5051517;28;20106;-79
2021/05/02 07:13:05;;;;;;;18.07;9.70;;;;;;;;;;5051636;28;20040;-79
2021/05/02 07:15:30;;;;;;;20.43;9.47;;;;;;;;;;5068389;28;20040;-79
2021/05/02 07:17:55;;;;;;;23.70;8.07;;;;;;;;;;5052918;28;20009;-79
2021/05/02 07:20:22;;;;;;;21.10;7.47;;;;;;;;;;5051749;28;20016;-79
2021/05/02 07:22:52;;;;;;;15.00;5.40;;;;;;;;;;5052819;28;20100;-79
2021/05/02 07:25:18;;;;;;;12.23;5.00;;;;;;;;;;5053301;28;20337;-79
2021/05/02 07:27:44;;;;;;;13.63;4.43;;;;;;;;;;5052733;28;20029;-80
2021/05/02 07:30:09;;;;;;;10.03;3.90;;;;;;;;;;5051485;28;20046;-79
2021/05/02 07:32:34;;;;;;;13.50;3.60;;;;;;;;;;5085049;28;20044;-79
2021/05/02 07:34:59;;;;;;;11.40;3.77;;;;;;;;;;5052631;28;20009;-79
2021/05/02 07:37:25;;;;;;;16.23;5.00;;;;;;;;;;5052688;28;20491;-79
2021/05/02 07:39:50;;;;;;;10.13;2.70;;;;;;;;;;5048696;28;20013;-79
2021/05/02 07:42:15;;;;;;;14.07;2.83;;;;;;;;;;5041284;28;20411;-79
2021/05/02 07:44:40;;;;;;;9.77;2.10;;;;;;;;;;5051263;28;20116;-79
2021/05/02 07:47:05;;;;;;;8.20;2.07;;;;;;;;;;5051404;28;20025;-79
2021/05/02 07:49:31;;;;;;;10.17;2.57;;;;;;;;;;5052714;28;20410;-79
2021/05/02 07:51:56;;;;;;;10.97;3.03;;;;;;;;;;5052488;28;20021;-79
2021/05/02 07:54:21;;;;;;;7.20;2.73;;;;;;;;;;5051076;28;20029;-79
2021/05/02 07:56:46;;;;;;;7.17;2.77;;;;;;;;;;5051178;28;20021;-79
2021/05/02 07:59:11;;;;;;;7.47;3.00;;;;;;;;;;5052458;28;20364;-79
2021/05/02 08:01:36;;;;;;;8.00;3.17;;;;;;;;;;5051262;28;20028;-79
2021/05/02 08:04:02;;;;;;;7.90;3.73;;;;;;;;;;5051015;28;20017;-79
2021/05/02 08:06:27;;;;;;;10.80;4.17;;;;;;;;;;5051122;28;20021;-79
2021/05/02 08:08:53;;;;;;;9.00;3.63;;;;;;;;;;5052328;28;20033;-79
2021/05/02 08:11:18;;;;;;;5.90;3.03;;;;;;;;;;5052284;28;20032;-79
2021/05/02 08:13:43;;;;;;;11.93;4.00;;;;;;;;;;5052229;28;20392;-79
2021/05/02 08:16:09;;;;;;;9.93;3.07;;;;;;;;;;5050913;28;20013;-79
2021/05/02 08:18:34;;;;;;;7.93;2.90;;;;;;;;;;5052381;28;20411;-79
2021/05/02 08:20:59;;;;;;;6.13;3.00;;;;;;;;;;5052442;28;20021;-79
2021/05/02 08:23:25;;;;;;;5.20;2.97;;;;;;;;;;5055867;28;20035;-79
2021/05/02 08:25:50;;;;;;;6.47;2.90;;;;;;;;;;5056415;28;20021;-79
2021/05/02 08:28:15;;;;;;;10.20;3.00;;;;;;;;;;5054797;28;20012;-79
2021/05/02 08:30:40;;;;;;;7.77;2.87;;;;;;;;;;5056152;28;20109;-79
2021/05/02 08:33:06;;;;;;;7.83;3.27;;;;;;;;;;5054770;28;20075;-79
2021/05/02 08:35:31;;;;;;;11.03;4.00;;;;;;;;;;5054730;28;20009;-79
2021/05/02 08:37:56;;;;;;;7.60;3.23;;;;;;;;;;5054438;28;20032;-79
2021/05/02 08:40:21;;;;;;;10.32;3.60;;;;;;;;;;5054739;28;20032;-79
2021/05/02 08:42:47;;;;;;;10.13;3.17;;;;;;;;;;5054683;28;20028;-79
2021/05/02 08:45:12;;;;;;;11.27;3.40;;;;;;;;;;5054400;28;20135;-79
2021/05/02 08:47:37;;;;;;;11.87;3.20;;;;;;;;;;5056103;28;20033;-79
2021/05/02 08:50:07;;;;;;;9.50;2.70;;;;;;;;;;5055650;28;20143;-79
2021/05/02 08:52:33;;;;;;;10.73;2.63;;;;;;;;;;5055644;28;20334;-79
2021/05/02 08:54:58;;;;;;;9.73;3.00;;;;;;;;;;5055667;28;20025;-80
2021/05/02 08:57:23;;;;;;;10.33;3.13;;;;;;;;;;5054114;28;20025;-79
2021/05/02 08:59:48;;;;;;;7.73;2.90;;;;;;;;;;5055787;28;20088;-79
2021/05/02 09:02:20;;;;;;;8.67;3.20;;;;;;;;;;5055432;28;20009;-79
2021/05/02 09:04:56;;;;;;;10.02;3.33;;;;;;;;;;5054537;28;20067;-79
2021/05/02 09:07:21;;;;;;;9.02;2.72;;;;;;;;;;5055374;28;20087;-79
2021/05/02 09:09:46;;;;;;;5.13;2.17;;;;;;;;;;5055367;28;20009;-79
2021/05/02 09:12:22;;;;;;;4.93;2.43;;;;;;;;;;5087637;28;20021;-79
2021/05/02 09:14:48;;;;;;;5.70;2.30;;;;;;;;;;5055600;28;20037;-79
2021/05/02 09:17:18;;;;;;;9.30;2.17;;;;;;;;;;5055346;28;20021;-79
2021/05/02 09:19:45;;;;;;;4.47;1.73;;;;;;;;;;5055049;28;20017;-79
2021/05/02 09:22:12;;;;;;;10.47;1.97;;;;;;;;;;5055212;28;20534;-79
2021/05/02 09:24:37;;;;;;;9.40;2.00;;;;;;;;;;5055038;28;20096;-79
2021/05/02 09:27:07;;;;;;;8.13;1.70;;;;;;;;;;5055208;28;20059;-79
2021/05/02 09:29:33;;;;;;;7.87;2.20;;;;;;;;;;5053673;28;20372;-79
2021/05/02 09:31:59;;;;;;;6.37;1.87;;;;;;;;;;5053755;28;20032;-79
2021/05/02 09:34:24;;;;;;;7.65;2.00;;;;;;;;;;5041215;28;20381;-79
2021/05/02 09:36:57;;;;;;;10.03;1.90;;;;;;;;;;5053308;28;20070;-79
2021/05/02 09:39:35;;;;;;;6.32;1.77;;;;;;;;;;5070710;28;20036;-80
2021/05/02 09:42:08;;;;;;;7.83;1.83;;;;;;;;;;5041786;28;20088;-79
2021/05/02 09:44:54;;;;;;;8.30;1.65;;;;;;;;;;5053633;28;20029;-79
2021/05/02 09:47:32;;;;;;;5.90;2.33;;;;;;;;;;5053491;28;20388;-79
2021/05/02 09:50:02;;;;;;;4.60;1.60;;;;;;;;;;5053362;28;20071;-79
2021/05/02 09:52:43;;;;;;;4.93;1.60;;;;;;;;;;5053445;28;20021;-79
2021/05/02 09:55:27;;;;;;;5.43;1.83;;;;;;;;;;5053286;28;20029;-80
2021/05/02 09:57:58;;;;;;;5.80;1.67;;;;;;;;;;5041757;28;20021;-79
2021/05/02 10:00:42;;;;;;;8.05;1.90;;;;;;;;;;5053226;28;20439;-79
2021/05/02 10:03:10;;;;;;;4.90;1.88;;;;;;;;;;5053238;28;20024;-79
2021/05/02 10:05:50;;;;;;;3.30;1.92;;;;;;;;;;5054330;28;20020;-79
2021/05/02 10:08:16;;;;;;;7.75;1.92;;;;;;;;;;5053130;28;20124;-80
2021/05/02 10:10:41;;;;;;;4.32;2.00;;;;;;;;;;5054250;28;20103;-79
2021/05/02 10:13:06;;;;;;;5.50;1.90;;;;;;;;;;5054390;28;20464;-79
2021/05/02 10:15:32;;;;;;;3.08;1.60;;;;;;;;;;5054399;28;20017;-79
2021/05/02 10:17:57;;;;;;;4.55;1.67;;;;;;;;;;5040015;28;20025;-79
2021/05/02 10:20:24;;;;;;;3.97;1.60;;;;;;;;;;5052958;28;20049;-79
2021/05/02 10:22:50;;;;;;;4.85;1.63;;;;;;;;;;5052717;28;20032;-79
2021/05/02 10:25:15;;;;;;;12.50;1.80;;;;;;;;;;5053428;28;20158;-79
2021/05/02 10:27:42;;;;;;;6.00;1.60;;;;;;;;;;5053908;28;20063;-79
2021/05/02 10:30:08;;;;;;;4.13;1.55;;;;;;;;;;5054080;28;20021;-79
2021/05/02 10:32:34;;;;;;;5.47;1.48;;;;;;;;;;5054016;28;20035;-80
2021/05/02 10:35:05;;;;;;;7.50;1.45;;;;;;;;;;5054111;28;20024;-79
2021/05/02 10:37:33;;;;;;;8.10;1.52;;;;;;;;;;5052537;28;20033;-79
2021/05/02 10:40:03;;;;;;;5.03;1.50;;;;;;;;;;5052372;28;20021;-79
2021/05/02 10:42:42;;;;;;;6.32;1.67;;;;;;;;;;5053787;28;20475;-79
2021/05/02 10:45:26;;;;;;;2.90;1.40;;;;;;;;;;5053063;28;20020;-79
2021/05/02 10:47:52;;;;;;;7.38;2.08;;;;;;;;;;5053671;28;20053;-79
2021/05/02 10:50:28;;;;;;;12.25;1.88;;;;;;;;;;5053427;28;20035;-80
2021/05/02 10:53:19;;;;;;;4.57;1.80;;;;;;;;;;5053512;28;20095;-80
2021/05/02 10:56:04;;;;;;;6.10;1.52;;;;;;;;;;5049955;28;20029;-80
2021/05/02 10:58:33;;;;;;;4.90;1.77;;;;;;;;;;5053587;28;20457;-79
2021/05/02 11:01:09;;;;;;;6.60;1.55;;;;;;;;;;5053286;28;20035;-79
2021/05/02 11:06:09;;;;;;;6.10;1.60;;;;;;;;;;5053157;28;20108;-79
2021/05/02 11:08:43;;;;;;;5.13;1.80;;;;;;;;;;5053430;28;20035;-79
2021/05/02 11:11:29;;;;;;;1.60;1.43;;;;;;;;;;5051763;28;20017;-79
2021/05/02 11:14:06;;;;;;;5.10;1.75;;;;;;;;;;5051537;28;20090;-79
2021/05/02 11:16:32;;;;;;;4.27;1.80;;;;;;;;;;5039816;28;20028;-79
2021/05/02 11:18:57;;;;;;;8.75;1.83;;;;;;;;;;5053138;28;20107;-79
2021/05/02 11:21:23;;;;;;;6.30;1.73;;;;;;;;;;5051544;28;20522;-79
2021/05/02 11:24:01;;;;;;;6.07;1.85;;;;;;;;;;5051773;28;20017;-79
2021/05/02 11:26:44;;;;;;;3.15;1.52;;;;;;;;;;5052886;28;20067;-79
2021/05/02 11:29:21;;;;;;;5.63;1.88;;;;;;;;;;5053000;28;20070;-79
2021/05/02 11:31:46;;;;;;;9.10;2.35;;;;;;;;;;5053186;28;20040;-79
2021/05/02 11:34:11;;;;;;;6.00;1.50;;;;;;;;;;5052936;28;20017;-80
2021/05/02 11:36:38;;;;;;;4.20;1.55;;;;;;;;;;5052591;28;20028;-79
2021/05/02 11:39:03;;;;;;;6.05;2.10;;;;;;;;;;5052602;28;20019;-79
2021/05/02 11:41:28;;;;;;;5.68;2.20;;;;;;;;;;5052657;28;20103;-79
2021/05/02 11:43:53;;;;;;;6.55;1.38;;;;;;;;;;5051285;28;20079;-79
2021/05/02 11:46:24;;;;;;;6.30;1.20;;;;;;;;;;5052690;28;20021;-79
2021/05/02 11:48:50;;;;;;;6.20;1.45;;;;;;;;;;5039259;28;20373;-79
2021/05/02 11:51:22;;;;;;;3.35;1.52;;;;;;;;;;5051266;28;20025;-79
2021/05/02 11:53:47;;;;;;;3.65;1.48;;;;;;;;;;5052469;28;20017;-80
2021/05/02 11:56:14;;;;;;;3.63;1.52;;;;;;;;;;5051472;28;20468;-79
2021/05/02 11:58:39;;;;;;;10.90;1.40;;;;;;;;;;5052533;28;20021;-80
2021/05/02 12:01:07;;;;;;;4.32;1.38;;;;;;;;;;5052320;28;20015;-79
2021/05/02 12:03:34;;;;;;;5.05;1.60;;;;;;;;;;5051075;28;20151;-79
2021/05/02 12:06:00;;;;;;;2.90;1.02;;;;;;;;;;5052384;28;20139;-79
2021/05/02 12:08:26;;;;;;;5.75;1.30;;;;;;;;;;5052311;28;20436;-79
2021/05/02 12:10:52;;;;;;;3.97;1.25;;;;;;;;;;5052216;28;20040;-79
2021/05/02 12:13:28;;;;;;;5.25;1.50;;;;;;;;;;5052319;28;20139;-80
2021/05/02 12:16:00;;;;;;;5.57;1.50;;;;;;;;;;5052013;28;20017;-79
2021/05/02 12:18:39;;;;;;;4.28;1.70;;;;;;;;;;5051129;28;20095;-80
2021/05/02 12:21:14;;;;;;;2.33;1.30;;;;;;;;;;5052067;28;20028;-79
2021/05/02 12:23:40;;;;;;;2.67;1.42;;;;;;;;;;5050906;28;20384;-80
2021/05/02 12:26:07;;;;;;;5.30;1.70;;;;;;;;;;5052453;28;20036;-79
2021/05/02 12:28:32;;;;;;;8.10;1.88;;;;;;;;;;5052034;28;20036;-80
2021/05/02 12:30:57;;;;;;;2.90;1.60;;;;;;;;;;5052199;28;20415;-79
2021/05/02 12:33:22;;;;;;;4.53;1.85;;;;;;;;;;5051946;28;20017;-80
2021/05/02 12:35:47;;;;;;;4.20;1.92;;;;;;;;;;5052088;28;20029;-79
2021/05/02 12:38:28;;;;;;;2.55;1.58;;;;;;;;;;5047519;28;20036;-80
2021/05/02 12:40:53;;;;;;;5.72;1.80;;;;;;;;;;5042064;28;20024;-80
2021/05/02 12:43:22;;;;;;;4.57;1.90;;;;;;;;;;5051846;28;20013;-80
2021/05/02 12:45:48;;;;;;;9.45;3.00;;;;;;;;;;5052031;28;20025;-80
2021/05/02 12:48:22;;;;;;;5.55;1.75;;;;;;;;;;5050456;28;20021;-80
2021/05/02 12:50:48;;;;;;;4.07;1.50;;;;;;;;;;5050587;28;20354;-80
2021/05/02 12:53:13;;;;;;;2.10;1.38;;;;;;;;;;5051709;28;20028;-80
2021/05/02 12:55:38;;;;;;;4.38;1.65;;;;;;;;;;5051740;28;20021;-80
2021/05/02 12:58:04;;;;;;;2.13;1.40;;;;;;;;;;5051804;28;20021;-80
2021/05/02 13:00:34;;;;;;;4.95;1.67;;;;;;;;;;5051665;28;20048;-80
2021/05/02 13:03:17;;;;;;;4.85;1.60;;;;;;;;;;5051988;28;20017;-80
2021/05/02 13:05:43;;;;;;;6.25;1.60;;;;;;;;;;5051659;28;20017;-79
2021/05/02 13:08:11;;;;;;;3.47;1.40;;;;;;;;;;5053152;28;20415;-80
2021/05/02 13:10:37;;;;;;;4.93;1.70;;;;;;;;;;5055180;28;20368;-79
2021/05/02 13:13:02;;;;;;;4.30;2.17;;;;;;;;;;5053858;28;20020;-79
2021/05/02 13:15:41;;;;;;;2.60;1.60;;;;;;;;;;5055466;28;20096;-80
2021/05/02 13:18:08;;;;;;;3.20;1.58;;;;;;;;;;5054961;28;20017;-80
2021/05/02 13:21:02;;;;;;;5.35;1.70;;;;;;;;;;5055671;28;20017;-80
2021/05/02 13:23:29;;;;;;;6.72;1.92;;;;;;;;;;5045101;28;20033;-80
2021/05/02 13:26:13;;;;;;;5.95;1.58;;;;;;;;;;5053763;28;20108;-79
2021/05/02 13:28:38;;;;;;;3.80;1.42;;;;;;;;;;5042188;28;20048;-79
2021/05/02 13:31:04;;;;;;;6.50;1.80;;;;;;;;;;5048786;28;20536;-80
2021/05/02 13:33:30;;;;;;;5.10;1.45;;;;;;;;;;5054083;28;20016;-80
2021/05/02 13:35:57;;;;;;;5.90;1.60;;;;;;;;;;5054807;28;20021;-80
2021/05/02 13:38:22;;;;;;;3.75;1.70;;;;;;;;;;5050135;28;20024;-80
2021/05/02 13:40:47;;;;;;;6.10;1.80;;;;;;;;;;5045457;28;20103;-80
2021/05/02 13:43:12;;;;;;;6.07;1.90;;;;;;;;;;5054867;28;20013;-80
2021/05/02 13:45:40;;;;;;;7.22;1.63;;;;;;;;;;5054718;28;20025;-80
2021/05/02 13:48:06;;;;;;;5.95;1.80;;;;;;;;;;5054865;28;20028;-80
2021/05/02 13:50:31;;;;;;;2.72;2.03;;;;;;;;;;5054553;28;20017;-80
2021/05/02 13:52:56;;;;;;;7.95;1.90;;;;;;;;;;5053341;28;20021;-80
2021/05/02 13:55:21;;;;;;;6.72;2.20;;;;;;;;;;5053048;28;20461;-80
2021/05/02 13:57:47;;;;;;;7.15;1.90;;;;;;;;;;5054431;28;20036;-80
2021/05/02 14:00:13;;;;;;;4.55;2.13;;;;;;;;;;5053277;28;20049;-80
2021/05/02 14:02:39;;;;;;;6.10;2.38;;;;;;;;;;5054306;28;20151;-80
2021/05/02 14:05:05;;;;;;;4.15;2.38;;;;;;;;;;5053182;28;20485;-80
2021/05/02 14:07:30;;;;;;;4.55;2.00;;;;;;;;;;5054215;28;20404;-80
2021/05/02 14:09:56;;;;;;;3.80;2.10;;;;;;;;;;5042815;28;20025;-80
2021/05/02 14:12:21;;;;;;;7.07;2.25;;;;;;;;;;5054142;28;20060;-80
2021/05/02 14:14:46;;;;;;;5.47;2.50;;;;;;;;;;5054419;28;20032;-80
2021/05/02 14:17:11;;;;;;;5.25;2.22;;;;;;;;;;5052957;28;20067;-79
2021/05/02 14:19:37;;;;;;;7.40;2.58;;;;;;;;;;5053184;28;20020;-79
2021/05/02 14:22:02;;;;;;;9.38;2.22;;;;;;;;;;5054085;28;20013;-80
2021/05/02 14:24:28;;;;;;;5.35;2.30;;;;;;;;;;5053933;28;20017;-80
2021/05/02 14:26:53;;;;;;;5.05;2.20;;;;;;;;;;5052704;28;20021;-80
2021/05/02 14:29:19;;;;;;;3.85;2.05;;;;;;;;;;5052763;28;20025;-80
2021/05/02 14:31:44;;;;;;;5.72;2.45;;;;;;;;;;5053791;28;20476;-80